Map

Track Data

SID SEASON NUMBER BASIN SUBBASIN NAME ISO_TIME NATURE LAT LON WMO_WIND WMO_PRES WMO_AGENCY TRACK_TYPE DIST2LAND LANDFALL IFLAG USA_AGENCY USA_ATCF_ID USA_LAT USA_LON USA_RECORD USA_STATUS USA_WIND USA_PRES USA_SSHS USA_R34_NE USA_R34_SE USA_R34_SW USA_R34_NW USA_R50_NE USA_R50_SE USA_R50_SW USA_R50_NW USA_R64_NE USA_R64_SE USA_R64_SW USA_R64_NW USA_POCI USA_ROCI USA_RMW USA_EYE TOKYO_LAT TOKYO_LON TOKYO_GRADE TOKYO_WIND TOKYO_PRES TOKYO_R50_DIR TOKYO_R50_LONG TOKYO_R50_SHORT TOKYO_R30_DIR TOKYO_R30_LONG TOKYO_R30_SHORT TOKYO_LAND CMA_LAT CMA_LON CMA_CAT CMA_WIND CMA_PRES HKO_LAT HKO_LON HKO_CAT HKO_WIND HKO_PRES NEWDELHI_LAT NEWDELHI_LON NEWDELHI_GRADE NEWDELHI_WIND NEWDELHI_PRES NEWDELHI_CI NEWDELHI_DP NEWDELHI_POCI REUNION_LAT REUNION_LON REUNION_TYPE REUNION_WIND REUNION_PRES REUNION_TNUM REUNION_CI REUNION_RMW REUNION_R34_NE REUNION_R34_SE REUNION_R34_SW REUNION_R34_NW REUNION_R50_NE REUNION_R50_SE REUNION_R50_SW REUNION_R50_NW REUNION_R64_NE REUNION_R64_SE REUNION_R64_SW REUNION_R64_NW BOM_LAT BOM_LON BOM_TYPE BOM_WIND BOM_PRES BOM_TNUM BOM_CI BOM_RMW BOM_R34_NE BOM_R34_SE BOM_R34_SW BOM_R34_NW BOM_R50_NE BOM_R50_SE BOM_R50_SW BOM_R50_NW BOM_R64_NE BOM_R64_SE BOM_R64_SW BOM_R64_NW BOM_ROCI BOM_POCI BOM_EYE BOM_POS_METHOD BOM_PRES_METHOD NADI_LAT NADI_LON NADI_CAT NADI_WIND NADI_PRES WELLINGTON_LAT WELLINGTON_LON WELLINGTON_WIND WELLINGTON_PRES DS824_LAT DS824_LON DS824_STAGE DS824_WIND DS824_PRES TD9636_LAT TD9636_LON TD9636_STAGE TD9636_WIND TD9636_PRES TD9635_LAT TD9635_LON TD9635_WIND TD9635_PRES TD9635_ROCI NEUMANN_LAT NEUMANN_LON NEUMANN_CLASS NEUMANN_WIND NEUMANN_PRES MLC_LAT MLC_LON MLC_CLASS MLC_WIND MLC_PRES USA_GUST BOM_GUST BOM_GUST_PER REUNION_GUST REUNION_GUST_PER USA_SEAHGT USA_SEARAD_NE USA_SEARAD_SE USA_SEARAD_SW USA_SEARAD_NW STORM_SPEED STORM_DIR
1910235N15298 1910 31 NA CS NOT_NAMED 1910-08-23 06:00:00 TS 15.0000 -62.0000 35 hurdat_atl main 481 439 O_____________ hurdat_atl AL011910 15.0000 -62.0000 TS 35 0 17 288
1910235N15298 1910 31 NA CS NOT_NAMED 1910-08-23 09:00:00 TS 15.2657 -62.8544 main 432 358 P_____________ AL011910 15.2657 -62.8544 TS 35 0 17 287
1910235N15298 1910 31 NA CS NOT_NAMED 1910-08-23 12:00:00 TS 15.5000 -63.7000 35 hurdat_atl main 358 292 O_____________ hurdat_atl AL011910 15.5000 -63.7000 TS 35 0 17 285
1910235N15298 1910 31 NA CS NOT_NAMED 1910-08-23 15:00:00 TS 15.6920 -64.5355 main 292 238 P_____________ AL011910 15.6920 -64.5355 TS 35 0 17 284
1910235N15298 1910 31 NA CS NOT_NAMED 1910-08-23 18:00:00 TS 15.9000 -65.4000 35 hurdat_atl main 238 190 O_____________ hurdat_atl AL011910 15.9000 -65.4000 TS 35 0 18 286
1910235N15298 1910 31 NA CS NOT_NAMED 1910-08-23 21:00:00 TS 16.1770 -66.3128 main 190 156 P_____________ AL011910 16.1770 -66.3128 TS 35 0 19 288
1910235N15298 1910 31 NA CS NOT_NAMED 1910-08-24 00:00:00 TS 16.5000 -67.3000 35 hurdat_atl main 157 148 O_____________ hurdat_atl AL011910 16.5000 -67.3000 TS 35 0 21 288
1910235N15298 1910 31 NA CS NOT_NAMED 1910-08-24 03:00:00 TS 16.8350 -68.3927 main 158 127 P_____________ AL011910 16.8350 -68.3927 TS 35 0 22 288
1910235N15298 1910 31 NA CS NOT_NAMED 1910-08-24 06:00:00 TS 17.2000 -69.5000 35 hurdat_atl main 134 67 O_____________ hurdat_atl AL011910 17.2000 -69.5000 TS 35 0 22 290
1910235N15298 1910 31 NA CS NOT_NAMED 1910-08-24 09:00:00 TS 17.5999 -70.5674 main 67 0 P_____________ AL011910 17.5999 -70.5674 TS 35 0 21 293
1910235N15298 1910 31 NA NA NOT_NAMED 1910-08-24 12:00:00 TS 18.0000 -71.5000 35 hurdat_atl main 0 0 O_____________ hurdat_atl AL011910 18.0000 -71.5000 TS 35 0 17 296
1910235N15298 1910 31 NA NA NOT_NAMED 1910-08-24 15:00:00 TS 18.3567 -72.2106 main 0 0 P_____________ AL011910 18.3567 -72.2106 TS 32 -1 14 300
1910235N15298 1910 31 NA CS NOT_NAMED 1910-08-24 18:00:00 TS 18.7000 -72.8000 30 hurdat_atl main 30 24 O_____________ hurdat_atl AL011910 18.7000 -72.8000 TD 30 -1 13 301
1910235N15298 1910 31 NA CS NOT_NAMED 1910-08-24 21:00:00 TS 19.0346 -73.3931 main 63 49 P_____________ AL011910 19.0346 -73.3931 TD 30 -1 13 302
1910235N15298 1910 31 NA CS NOT_NAMED 1910-08-25 00:00:00 TS 19.4000 -74.0000 30 hurdat_atl main 62 24 O_____________ hurdat_atl AL011910 19.4000 -74.0000 TD 30 -1 15 303
1910235N15298 1910 31 NA CS NOT_NAMED 1910-08-25 03:00:00 TS 19.8275 -74.6926 main 24 0 P_____________ AL011910 19.8275 -74.6926 TD 30 -1 16 304
1910235N15298 1910 31 NA NA NOT_NAMED 1910-08-25 06:00:00 TS 20.3000 -75.4000 30 hurdat_atl main 0 0 O_____________ hurdat_atl AL011910 20.3000 -75.4000 TD 30 -1 16 306
1910235N15298 1910 31 NA NA NOT_NAMED 1910-08-25 09:00:00 TS 20.7775 -76.0951 main 0 0 P_____________ AL011910 20.7775 -76.0951 TD 30 -1 16 309
1910235N15298 1910 31 NA NA NOT_NAMED 1910-08-25 12:00:00 TS 21.3000 -76.7000 30 hurdat_atl main 0 0 O_____________ hurdat_atl AL011910 21.3000 -76.7000 TD 30 -1 15 318
1910235N15298 1910 31 NA NA NOT_NAMED 1910-08-25 15:00:00 TS 21.8697 -77.1530 main 22 22 P_____________ AL011910 21.8697 -77.1530 TD 30 -1 14 328
1910235N15298 1910 31 NA NA NOT_NAMED 1910-08-25 18:00:00 TS 22.5000 -77.5000 30 hurdat_atl main 73 73 O_____________ hurdat_atl AL011910 22.5000 -77.5000 TD 30 -1 14 335
1910235N15298 1910 31 NA NA NOT_NAMED 1910-08-25 21:00:00 TS 23.1624 -77.8156 main 113 35 P_____________ AL011910 23.1624 -77.8156 TD 30 -1 15 339
1910235N15298 1910 31 NA NA NOT_NAMED 1910-08-26 00:00:00 TS 23.9000 -78.1000 30 hurdat_atl main 35 0 O_____________ hurdat_atl AL011910 23.9000 -78.1000 TD 30 -1 17 340
1910235N15298 1910 31 NA NA NOT_NAMED 1910-08-26 03:00:00 TS 24.7126 -78.4223 main 10 10 P_____________ AL011910 24.7126 -78.4223 TD 30 -1 18 342
1910235N15298 1910 31 NA NA NOT_NAMED 1910-08-26 06:00:00 TS 25.6000 -78.7000 30 hurdat_atl main 82 82 O_____________ hurdat_atl AL011910 25.6000 -78.7000 TD 30 -1 20 347
1910235N15298 1910 31 NA NA NOT_NAMED 1910-08-26 09:00:00 TS 26.6099 -78.8950 main 111 101 P_____________ AL011910 26.6099 -78.8950 TD 30 -1 19 352
1910235N15298 1910 31 NA NA NOT_NAMED 1910-08-26 12:00:00 TS 27.5000 -79.0000 30 hurdat_atl main 122 122 O_____________ hurdat_atl AL011910 27.5000 -79.0000 TD 30 -1 14 355
1910235N15298 1910 31 NA NA NOT_NAMED 1910-08-26 15:00:00 TS 28.0024 -79.0230 main 144 144 P_____________ AL011910 28.0024 -79.0230 TD 30 -1 9 0
1910235N15298 1910 31 NA NA NOT_NAMED 1910-08-26 18:00:00 TS 28.4000 -79.0000 30 hurdat_atl main 146 146 O_____________ hurdat_atl AL011910 28.4000 -79.0000 TD 30 -1 10 1
1910235N15298 1910 31 NA NA NOT_NAMED 1910-08-26 21:00:00 TS 28.9850 -79.0000 main 156 156 P_____________ AL011910 28.9850 -79.0000 TD 32 -1 12 1
1910235N15298 1910 31 NA NA NOT_NAMED 1910-08-27 00:00:00 ET 29.6000 -79.0000 35 hurdat_atl main 190 190 O_____________ hurdat_atl AL011910 29.6000 -79.0000 EX 35 -4 12 0
1910235N15298 1910 31 NA NA NOT_NAMED 1910-08-27 03:00:00 ET 30.1650 -79.0221 main 220 220 P_____________ AL011910 30.1650 -79.0221 EX 35 -4 11 0
1910235N15298 1910 31 NA NA NOT_NAMED 1910-08-27 06:00:00 ET 30.7000 -79.0000 35 hurdat_atl main 224 187 O_____________ hurdat_atl AL011910 30.7000 -79.0000 EX 35 -4 11 7
1910235N15298 1910 31 NA NA NOT_NAMED 1910-08-27 09:00:00 ET 31.2375 -78.8728 main 187 158 P_____________ AL011910 31.2375 -78.8728 EX 35 -4 10 14
1910235N15298 1910 31 NA NA NOT_NAMED 1910-08-27 12:00:00 ET 31.7000 -78.7000 35 hurdat_atl main 158 134 O_____________ hurdat_atl AL011910 31.7000 -78.7000 EX 35 -4 8 19
1910235N15298 1910 31 NA NA NOT_NAMED 1910-08-27 15:00:00 ET 32.0299 -78.5572 main 134 121 P_____________ AL011910 32.0299 -78.5572 EX 35 -4 7 23
1910235N15298 1910 31 NA NA NOT_NAMED 1910-08-27 18:00:00 ET 32.3000 -78.4000 35 hurdat_atl main 121 114 O_____________ hurdat_atl AL011910 32.3000 -78.4000 EX 35 -4 6 28
1910235N15298 1910 31 NA NA NOT_NAMED 1910-08-27 21:00:00 ET 32.6000 -78.2074 main 114 108 P_____________ AL011910 32.6000 -78.2074 EX 37 -4 7 29
1910235N15298 1910 31 NA NA NOT_NAMED 1910-08-28 00:00:00 ET 32.9000 -78.0000 40 hurdat_atl main 111 80 O_____________ hurdat_atl AL011910 32.9000 -78.0000 EX 40 -4 7 28
1910235N15298 1910 31 NA NA NOT_NAMED 1910-08-28 03:00:00 ET 33.2074 -77.8148 main 80 57 P_____________ AL011910 33.2074 -77.8148 EX 40 -4 7 29
1910235N15298 1910 31 NA NA NOT_NAMED 1910-08-28 06:00:00 ET 33.5000 -77.6000 40 hurdat_atl main 57 56 O_____________ hurdat_atl AL011910 33.5000 -77.6000 EX 40 -4 7 38
1910235N15298 1910 31 NA NA NOT_NAMED 1910-08-28 09:00:00 ET 33.7273 -77.3368 main 68 64 P_____________ AL011910 33.7273 -77.3368 EX 40 -4 7 45
1910235N15298 1910 31 NA NA NOT_NAMED 1910-08-28 12:00:00 ET 34.0000 -77.0000 40 hurdat_atl main 66 33 O_____________ hurdat_atl AL011910 34.0000 -77.0000 EX 40 -4 10 42
1910235N15298 1910 31 NA NA NOT_NAMED 1910-08-28 15:00:00 ET 34.4352 -76.5582 main 33 14 P_____________ AL011910 34.4352 -76.5582 EX 40 -4 12 39
1910235N15298 1910 31 NA NA NOT_NAMED 1910-08-28 18:00:00 ET 34.9000 -76.1000 40 hurdat_atl main 18 18 O_____________ hurdat_atl AL011910 34.9000 -76.1000 EX 40 -4 11 39
1910235N15298 1910 31 NA NA NOT_NAMED 1910-08-28 21:00:00 ET 35.2647 -75.7343 main 33 21 P_____________ AL011910 35.2647 -75.7343 EX 37 -4 9 39
1910235N15298 1910 31 NA NA NOT_NAMED 1910-08-29 00:00:00 ET 35.6000 -75.4000 35 hurdat_atl main 24 21 O_____________ hurdat_atl AL011910 35.6000 -75.4000 EX 35 -4 9 39
1910235N15298 1910 31 NA NA NOT_NAMED 1910-08-29 03:00:00 ET 35.9499 -75.0497 main 46 46 P_____________ AL011910 35.9499 -75.0497 EX 35 -4 9 39
1910235N15298 1910 31 NA NA NOT_NAMED 1910-08-29 06:00:00 ET 36.3000 -74.7000 35 hurdat_atl main 87 87 O_____________ hurdat_atl AL011910 36.3000 -74.7000 EX 35 -4 9 39
1910235N15298 1910 31 NA NA NOT_NAMED 1910-08-29 09:00:00 ET 36.6575 -74.3424 main 136 136 P_____________ AL011910 36.6575 -74.3424 EX 32 -4 9 39
1910235N15298 1910 31 NA NA NOT_NAMED 1910-08-29 12:00:00 ET 37.0000 -74.0000 30 hurdat_atl main 159 159 O_____________ hurdat_atl AL011910 37.0000 -74.0000 EX 30 -4 8 39
1910235N15298 1910 31 NA NA NOT_NAMED 1910-08-29 15:00:00 ET 37.3101 -73.6903 main 165 165 P_____________ AL011910 37.3101 -73.6903 EX 30 -4 8 38
1910235N15298 1910 31 NA NA NOT_NAMED 1910-08-29 18:00:00 ET 37.6000 -73.4000 30 hurdat_atl main 167 O_____________ hurdat_atl AL011910 37.6000 -73.4000 EX 30 -4 7 39

About IBTrACS Database

This database is a web-friendly format of International Best Track Archive for Climate Stewardship (IBTrACS), a global best track data archive curated by NOAA dating back to 1842.

Updated: 2021-10-21